sensor_id;sensor_type;location;lat;lon;timestamp;P1;durP1;ratioP1;P2;durP2;ratioP2
16727;SDS011;8482;54.396;18.590;2024-03-08T17:01:32;3.73;;;1.50;;
16727;SDS011;8482;54.396;18.590;2024-03-08T17:03:58;3.53;;;1.57;;
16727;SDS011;8482;54.396;18.590;2024-03-08T17:06:24;3.47;;;1.70;;
16727;SDS011;8482;54.396;18.590;2024-03-08T17:08:50;4.37;;;1.57;;
16727;SDS011;8482;54.396;18.590;2024-03-08T17:11:17;2.93;;;1.50;;
16727;SDS011;8482;54.396;18.590;2024-03-08T17:13:43;3.13;;;1.50;;
16727;SDS011;8482;54.396;18.590;2024-03-08T17:16:11;3.43;;;1.60;;
16727;SDS011;8482;54.396;18.590;2024-03-08T17:18:37;2.93;;;1.40;;
16727;SDS011;8482;54.396;18.590;2024-03-08T17:21:04;2.90;;;1.50;;
16727;SDS011;8482;54.396;18.590;2024-03-08T17:23:37;3.50;;;1.77;;
16727;SDS011;8482;54.396;18.590;2024-03-08T17:26:05;3.97;;;1.70;;
16727;SDS011;8482;54.396;18.590;2024-03-08T17:28:32;2.97;;;1.67;;
16727;SDS011;8482;54.396;18.590;2024-03-08T17:31:01;4.10;;;1.40;;
16727;SDS011;8482;54.396;18.590;2024-03-08T17:33:27;2.33;;;1.60;;
16727;SDS011;8482;54.396;18.590;2024-03-08T17:36:00;3.37;;;1.83;;
16727;SDS011;8482;54.396;18.590;2024-03-08T17:38:25;2.40;;;1.40;;
16727;SDS011;8482;54.396;18.590;2024-03-08T17:40:53;2.60;;;1.40;;
16727;SDS011;8482;54.396;18.590;2024-03-08T17:43:19;2.60;;;1.57;;
16727;SDS011;8482;54.396;18.590;2024-03-08T17:45:48;2.40;;;1.60;;
16727;SDS011;8482;54.396;18.590;2024-03-08T17:48:14;4.03;;;1.73;;
16727;SDS011;8482;54.396;18.590;2024-03-08T17:50:44;2.73;;;1.20;;
16727;SDS011;8482;54.396;18.590;2024-03-08T17:53:13;2.17;;;1.33;;
16727;SDS011;8482;54.396;18.590;2024-03-08T17:55:39;1.70;;;1.23;;
16727;SDS011;8482;54.396;18.590;2024-03-08T17:58:06;3.47;;;1.43;;
16727;SDS011;8482;54.396;18.590;2024-03-08T18:00:33;3.20;;;1.10;;
16727;SDS011;8482;54.396;18.590;2024-03-08T18:03:03;1.83;;;1.17;;
16727;SDS011;8482;54.396;18.590;2024-03-08T18:05:30;5.30;;;1.30;;
16727;SDS011;8482;54.396;18.590;2024-03-08T18:08:02;4.33;;;1.40;;
16727;SDS011;8482;54.396;18.590;2024-03-08T18:10:29;3.07;;;1.63;;
16727;SDS011;8482;54.396;18.590;2024-03-08T18:12:59;3.07;;;1.60;;
16727;SDS011;8482;54.396;18.590;2024-03-08T18:15:41;3.63;;;1.20;;
16727;SDS011;8482;54.396;18.590;2024-03-08T18:18:09;1.53;;;1.13;;
16727;SDS011;8482;54.396;18.590;2024-03-08T18:20:36;2.00;;;1.27;;
16727;SDS011;8482;54.396;18.590;2024-03-08T18:23:22;2.00;;;1.37;;
16727;SDS011;8482;54.396;18.590;2024-03-08T18:25:49;1.70;;;1.30;;
16727;SDS011;8482;54.396;18.590;2024-03-08T18:28:15;2.27;;;1.10;;
16727;SDS011;8482;54.396;18.590;2024-03-08T18:30:42;3.60;;;1.20;;
16727;SDS011;8482;54.396;18.590;2024-03-08T18:33:08;4.03;;;1.30;;
16727;SDS011;8482;54.396;18.590;2024-03-08T18:35:38;2.80;;;1.30;;
16727;SDS011;8482;54.396;18.590;2024-03-08T18:38:08;2.87;;;1.40;;
16727;SDS011;8482;54.396;18.590;2024-03-08T18:40:36;1.70;;;1.27;;
16727;SDS011;8482;54.396;18.590;2024-03-08T18:43:09;3.10;;;1.43;;
16727;SDS011;8482;54.396;18.590;2024-03-08T18:45:35;1.83;;;1.20;;
16727;SDS011;8482;54.396;18.590;2024-03-08T18:48:03;5.13;;;1.97;;
16727;SDS011;8482;54.396;18.590;2024-03-08T18:50:30;2.53;;;1.30;;
16727;SDS011;8482;54.396;18.590;2024-03-08T18:52:56;2.90;;;1.10;;
16727;SDS011;8482;54.396;18.590;2024-03-08T18:55:23;1.80;;;0.97;;
16727;SDS011;8482;54.396;18.590;2024-03-08T18:57:53;1.50;;;1.20;;
16727;SDS011;8482;54.396;18.590;2024-03-08T19:00:23;2.00;;;0.90;;
16727;SDS011;8482;54.396;18.590;2024-03-08T19:02:55;1.63;;;1.10;;
16727;SDS011;8482;54.396;18.590;2024-03-08T19:05:30;2.03;;;1.20;;
16727;SDS011;8482;54.396;18.590;2024-03-08T19:08:00;2.50;;;1.10;;
16727;SDS011;8482;54.396;18.590;2024-03-08T19:10:34;1.57;;;1.00;;
16727;SDS011;8482;54.396;18.590;2024-03-08T19:13:02;2.20;;;1.10;;
16727;SDS011;8482;54.396;18.590;2024-03-08T19:15:29;1.53;;;1.03;;
16727;SDS011;8482;54.396;18.590;2024-03-08T19:17:59;1.93;;;1.10;;
16727;SDS011;8482;54.396;18.590;2024-03-08T19:20:29;3.03;;;1.17;;
16727;SDS011;8482;54.396;18.590;2024-03-08T19:22:58;3.33;;;1.30;;
16727;SDS011;8482;54.396;18.590;2024-03-08T19:25:25;1.63;;;1.23;;
16727;SDS011;8482;54.396;18.590;2024-03-08T19:27:56;2.77;;;1.30;;
16727;SDS011;8482;54.396;18.590;2024-03-08T19:30:28;3.33;;;1.23;;
16727;SDS011;8482;54.396;18.590;2024-03-08T19:32:56;1.67;;;1.03;;
16727;SDS011;8482;54.396;18.590;2024-03-08T19:35:23;1.87;;;1.10;;
16727;SDS011;8482;54.396;18.590;2024-03-08T19:37:50;3.27;;;1.20;;
16727;SDS011;8482;54.396;18.590;2024-03-08T19:40:22;2.50;;;1.10;;
16727;SDS011;8482;54.396;18.590;2024-03-08T19:42:59;2.20;;;1.30;;
16727;SDS011;8482;54.396;18.590;2024-03-08T19:45:28;1.23;;;0.90;;
16727;SDS011;8482;54.396;18.590;2024-03-08T19:48:02;1.70;;;1.00;;
16727;SDS011;8482;54.396;18.590;2024-03-08T19:50:31;1.80;;;1.20;;
16727;SDS011;8482;54.396;18.590;2024-03-08T19:53:06;2.10;;;1.10;;
16727;SDS011;8482;54.396;18.590;2024-03-08T19:55:35;2.43;;;1.17;;
16727;SDS011;8482;54.396;18.590;2024-03-08T19:58:05;3.00;;;0.97;;
16727;SDS011;8482;54.396;18.590;2024-03-08T20:00:34;1.97;;;0.97;;
16727;SDS011;8482;54.396;18.590;2024-03-08T20:03:03;2.07;;;1.03;;
16727;SDS011;8482;54.396;18.590;2024-03-08T20:05:32;1.10;;;0.93;;
16727;SDS011;8482;54.396;18.590;2024-03-08T20:07:59;1.90;;;1.00;;
16727;SDS011;8482;54.396;18.590;2024-03-08T20:10:30;1.50;;;1.00;;
16727;SDS011;8482;54.396;18.590;2024-03-08T20:13:01;3.57;;;1.50;;
16727;SDS011;8482;54.396;18.590;2024-03-08T20:15:32;1.67;;;1.07;;
16727;SDS011;8482;54.396;18.590;2024-03-08T20:18:02;2.87;;;1.17;;
16727;SDS011;8482;54.396;18.590;2024-03-08T20:20:29;1.07;;;0.97;;
16727;SDS011;8482;54.396;18.590;2024-03-08T20:22:55;2.37;;;0.97;;
16727;SDS011;8482;54.396;18.590;2024-03-08T20:25:22;2.33;;;1.10;;
16727;SDS011;8482;54.396;18.590;2024-03-08T20:27:51;2.47;;;1.20;;
16727;SDS011;8482;54.396;18.590;2024-03-08T20:30:22;1.67;;;1.10;;
16727;SDS011;8482;54.396;18.590;2024-03-08T20:35:29;1.60;;;1.10;;
16727;SDS011;8482;54.396;18.590;2024-03-08T20:38:00;2.67;;;1.20;;
16727;SDS011;8482;54.396;18.590;2024-03-08T20:40:31;1.97;;;1.13;;
16727;SDS011;8482;54.396;18.590;2024-03-08T20:43:06;3.77;;;1.93;;
16727;SDS011;8482;54.396;18.590;2024-03-08T20:45:36;3.43;;;1.40;;
16727;SDS011;8482;54.396;18.590;2024-03-08T20:48:03;3.70;;;1.20;;
16727;SDS011;8482;54.396;18.590;2024-03-08T20:50:30;2.40;;;1.27;;
16727;SDS011;8482;54.396;18.590;2024-03-08T20:53:01;2.57;;;1.30;;
16727;SDS011;8482;54.396;18.590;2024-03-08T20:55:33;3.10;;;1.43;;
16727;SDS011;8482;54.396;18.590;2024-03-08T20:57:59;1.40;;;1.00;;
16727;SDS011;8482;54.396;18.590;2024-03-08T21:00:26;1.97;;;1.20;;
16727;SDS011;8482;54.396;18.590;2024-03-08T21:03:05;3.07;;;1.30;;
16727;SDS011;8482;54.396;18.590;2024-03-08T21:05:39;1.97;;;1.13;;
16727;SDS011;8482;54.396;18.590;2024-03-08T21:08:07;2.00;;;1.10;;
16727;SDS011;8482;54.396;18.590;2024-03-08T21:10:41;3.43;;;1.27;;
16727;SDS011;8482;54.396;18.590;2024-03-08T21:13:07;1.83;;;1.23;;
16727;SDS011;8482;54.396;18.590;2024-03-08T21:15:40;1.60;;;1.40;;
16727;SDS011;8482;54.396;18.590;2024-03-08T21:18:10;2.70;;;1.40;;
16727;SDS011;8482;54.396;18.590;2024-03-08T21:20:37;2.30;;;1.30;;
16727;SDS011;8482;54.396;18.590;2024-03-08T21:23:05;3.57;;;1.60;;
16727;SDS011;8482;54.396;18.590;2024-03-08T21:25:32;2.93;;;1.60;;
16727;SDS011;8482;54.396;18.590;2024-03-08T21:28:02;3.80;;;1.60;;
16727;SDS011;8482;54.396;18.590;2024-03-08T21:30:32;2.40;;;1.20;;
16727;SDS011;8482;54.396;18.590;2024-03-08T21:32:58;2.17;;;1.30;;
16727;SDS011;8482;54.396;18.590;2024-03-08T21:35:35;1.97;;;1.30;;
16727;SDS011;8482;54.396;18.590;2024-03-08T21:38:05;4.93;;;2.00;;
16727;SDS011;8482;54.396;18.590;2024-03-08T21:40:32;3.87;;;1.60;;
16727;SDS011;8482;54.396;18.590;2024-03-08T21:43:00;3.03;;;1.60;;
16727;SDS011;8482;54.396;18.590;2024-03-08T21:45:28;3.43;;;1.80;;
16727;SDS011;8482;54.396;18.590;2024-03-08T21:47:59;4.93;;;2.10;;
16727;SDS011;8482;54.396;18.590;2024-03-08T21:50:26;4.77;;;2.00;;
16727;SDS011;8482;54.396;18.590;2024-03-08T21:52:58;3.50;;;2.00;;
16727;SDS011;8482;54.396;18.590;2024-03-08T21:55:27;5.20;;;2.17;;
16727;SDS011;8482;54.396;18.590;2024-03-08T21:57:54;6.23;;;2.63;;
16727;SDS011;8482;54.396;18.590;2024-03-08T22:00:23;4.57;;;2.60;;
16727;SDS011;8482;54.396;18.590;2024-03-08T22:02:49;5.80;;;2.90;;
16727;SDS011;8482;54.396;18.590;2024-03-08T22:05:16;6.97;;;3.97;;
16727;SDS011;8482;54.396;18.590;2024-03-08T22:07:45;6.17;;;2.93;;
16727;SDS011;8482;54.396;18.590;2024-03-08T22:10:13;8.10;;;3.83;;
16727;SDS011;8482;54.396;18.590;2024-03-08T22:12:50;6.97;;;3.70;;
16727;SDS011;8482;54.396;18.590;2024-03-08T22:15:17;7.40;;;4.60;;
16727;SDS011;8482;54.396;18.590;2024-03-08T22:17:46;9.93;;;6.33;;
16727;SDS011;8482;54.396;18.590;2024-03-08T22:20:17;9.30;;;5.33;;
16727;SDS011;8482;54.396;18.590;2024-03-08T22:22:50;11.47;;;5.53;;
16727;SDS011;8482;54.396;18.590;2024-03-08T22:25:17;8.77;;;4.77;;
16727;SDS011;8482;54.396;18.590;2024-03-08T22:27:44;8.67;;;4.80;;
16727;SDS011;8482;54.396;18.590;2024-03-08T22:30:15;7.73;;;4.10;;
16727;SDS011;8482;54.396;18.590;2024-03-08T22:32:48;8.73;;;4.80;;
16727;SDS011;8482;54.396;18.590;2024-03-08T22:35:18;10.33;;;4.73;;
